createdAt,value
2022-10-19T00:05:47.493Z,13.50
2022-10-19T00:20:49.399Z,13.50
2022-10-19T00:35:52.793Z,12.90
2022-10-19T00:50:56.453Z,12.70
2022-10-19T01:05:58.431Z,12.80
2022-10-19T01:21:15.237Z,12.80
2022-10-19T01:36:32.120Z,12.70
2022-10-19T01:51:38.273Z,12.60
2022-10-19T02:06:40.483Z,12.70
2022-10-19T02:21:42.532Z,12.80
2022-10-19T02:36:44.608Z,12.90
2022-10-19T02:52:02.247Z,12.90
2022-10-19T03:07:04.130Z,13.00
2022-10-19T03:22:06.399Z,12.90
2022-10-19T03:37:08.753Z,12.60
2022-10-19T03:52:10.855Z,12.60
2022-10-19T04:07:12.728Z,12.50
2022-10-19T04:22:14.601Z,12.30
2022-10-19T04:37:16.498Z,12.40
2022-10-19T04:52:18.405Z,12.00
2022-10-19T05:07:20.404Z,11.80
2022-10-19T05:22:22.263Z,11.80
2022-10-19T05:37:25.746Z,11.50
2022-10-19T05:52:28.375Z,11.60
2022-10-19T06:07:30.289Z,11.80
2022-10-19T06:22:32.183Z,11.70
2022-10-19T06:37:34.089Z,11.70
2022-10-19T06:52:36.589Z,11.80
2022-10-19T07:07:38.818Z,11.90
2022-10-19T07:22:40.742Z,12.20
2022-10-19T07:37:42.623Z,12.40
2022-10-19T07:52:44.471Z,12.90
2022-10-19T08:07:47.035Z,13.00
2022-10-19T08:22:48.887Z,13.40
2022-10-19T08:37:51.256Z,13.20
2022-10-19T08:53:03.896Z,13.50
2022-10-19T09:08:08.150Z,13.50
2022-10-19T09:23:41.183Z,13.40
2022-10-19T09:38:43.047Z,13.70
2022-10-19T09:53:55.340Z,14.00
2022-10-19T10:08:58.980Z,14.00
2022-10-19T10:24:16.988Z,14.10
2022-10-19T10:39:19.127Z,13.30
2022-10-19T10:54:22.469Z,14.50
2022-10-19T11:09:33.668Z,14.10
2022-10-19T11:24:45.087Z,15.10
2022-10-19T11:40:12.958Z,14.10
2022-10-19T11:55:30.560Z,14.00
2022-10-19T12:10:38.518Z,13.60
2022-10-19T12:25:43.873Z,13.50
2022-10-19T12:41:26.691Z,13.80
2022-10-19T12:56:28.606Z,13.20
2022-10-19T13:11:30.925Z,13.60
2022-10-19T13:26:34.803Z,13.40
2022-10-19T13:41:39.431Z,13.30
2022-10-19T13:57:02.931Z,13.00
2022-10-19T14:12:25.950Z,13.10
2022-10-19T14:27:28.414Z,13.10
2022-10-19T14:42:43.135Z,12.70
2022-10-19T14:57:49.233Z,13.00
2022-10-19T15:12:56.681Z,12.80
2022-10-19T15:27:58.752Z,12.80
2022-10-19T15:43:01.191Z,12.60
2022-10-19T15:58:03.051Z,12.50
2022-10-19T16:13:04.943Z,12.40
2022-10-19T16:28:06.822Z,12.20
2022-10-19T16:43:08.946Z,12.30
2022-10-19T16:58:10.779Z,12.00
2022-10-19T17:13:12.820Z,11.90
2022-10-19T17:28:14.858Z,11.90
2022-10-19T17:43:16.777Z,11.90
2022-10-19T17:58:18.901Z,12.00
2022-10-19T18:13:20.812Z,11.70
2022-10-19T18:28:23.174Z,11.40
2022-10-19T18:43:25.518Z,11.00
2022-10-19T18:58:30.679Z,10.60
2022-10-19T19:13:32.533Z,10.40
2022-10-19T19:28:36.602Z,10.10
2022-10-19T19:43:42.528Z,9.90
2022-10-19T19:58:45.316Z,9.60
2022-10-19T20:13:47.202Z,9.50
2022-10-19T20:28:49.819Z,9.40
2022-10-19T20:43:51.849Z,9.50
2022-10-19T20:58:59.096Z,9.30
2022-10-19T21:14:04.105Z,9.20
2022-10-19T21:29:09.570Z,9.10
2022-10-19T21:44:11.814Z,8.90
2022-10-19T21:59:14.364Z,9.10
2022-10-19T22:14:17.323Z,9.40
2022-10-19T22:29:19.273Z,9.30
2022-10-19T22:44:21.151Z,9.30
2022-10-19T22:59:22.943Z,9.40
2022-10-19T23:14:24.844Z,9.10
2022-10-19T23:29:26.788Z,9.00
2022-10-19T23:44:28.611Z,8.90
2022-10-19T23:59:30.420Z,8.50
